createdAt,value
2017-06-23T03:30:45.419Z,25.20
2017-06-23T03:33:13.077Z,25.30
2017-06-23T03:35:40.741Z,25.50
2017-06-23T03:38:08.386Z,25.40
2017-06-23T03:40:36.033Z,25.60
2017-06-23T03:43:03.672Z,25.60
2017-06-23T03:45:32.107Z,25.60
2017-06-23T03:47:59.740Z,25.60
2017-06-23T03:50:27.797Z,25.30
2017-06-23T03:52:55.438Z,25.30
2017-06-23T03:55:23.096Z,25.20
2017-06-23T03:57:50.760Z,25.20
2017-06-23T04:00:18.439Z,25.40
2017-06-23T04:02:46.856Z,25.70
2017-06-23T04:05:14.514Z,25.70
2017-06-23T04:07:42.174Z,25.80
2017-06-23T04:10:09.950Z,26.00
2017-06-23T04:12:37.941Z,26.00
2017-06-23T04:15:05.698Z,25.90
2017-06-23T04:17:33.319Z,25.90
2017-06-23T04:20:00.985Z,26.00
2017-06-23T04:22:28.639Z,25.90
2017-06-23T04:24:56.350Z,25.40
2017-06-23T04:27:23.994Z,25.30
2017-06-23T04:29:52.984Z,25.40
2017-06-23T04:32:20.626Z,25.60
2017-06-23T04:34:48.281Z,25.50
2017-06-23T04:37:15.927Z,25.40
2017-06-23T04:39:43.991Z,25.50
2017-06-23T04:42:12.445Z,25.90
2017-06-23T04:44:40.077Z,25.90
2017-06-23T04:47:07.736Z,25.90
2017-06-23T04:49:35.407Z,25.70
2017-06-23T04:52:03.068Z,25.50
2017-06-23T04:54:30.721Z,25.30
2017-06-23T04:56:58.757Z,25.30
2017-06-23T04:59:27.171Z,25.60
2017-06-23T05:01:54.879Z,25.60
2017-06-23T05:04:22.540Z,25.40
2017-06-23T05:06:50.194Z,25.40
2017-06-23T05:09:17.859Z,25.30
2017-06-23T05:11:45.542Z,25.20
2017-06-23T05:14:13.969Z,25.20
2017-06-23T05:16:41.604Z,25.20
2017-06-23T05:19:09.653Z,25.10
2017-06-23T05:21:38.044Z,25.50
2017-06-23T05:24:05.696Z,25.40
2017-06-23T05:26:34.139Z,25.60
2017-06-23T05:29:01.773Z,25.60
2017-06-23T05:31:29.442Z,25.60
2017-06-23T05:33:57.094Z,25.70
2017-06-23T05:36:25.139Z,26.10
2017-06-23T05:38:52.793Z,26.60
2017-06-23T05:41:21.426Z,27.00
2017-06-23T05:43:49.458Z,26.90
2017-06-23T05:46:17.867Z,27.10
2017-06-23T05:48:45.547Z,27.00
2017-06-23T05:51:13.544Z,27.10
2017-06-23T05:53:41.254Z,27.20
2017-06-23T05:56:08.902Z,27.20
2017-06-23T05:58:37.091Z,27.30
2017-06-23T06:01:04.804Z,27.30
2017-06-23T06:03:32.452Z,27.20
2017-06-23T06:06:00.463Z,27.20
2017-06-23T06:08:28.877Z,27.00
2017-06-23T06:10:56.537Z,27.00
2017-06-23T06:13:24.499Z,27.30
2017-06-23T06:15:52.164Z,27.10
2017-06-23T06:18:19.817Z,27.10
2017-06-23T06:20:47.860Z,27.20
2017-06-23T06:23:15.503Z,26.70
2017-06-23T06:25:43.150Z,26.50
2017-06-23T06:28:11.177Z,26.40
2017-06-23T06:30:38.856Z,26.20
2017-06-23T06:33:06.511Z,26.60
2017-06-23T06:35:34.483Z,27.00
2017-06-23T06:38:02.144Z,26.70
2017-06-23T06:40:30.074Z,27.10
2017-06-23T06:42:58.880Z,27.60
2017-06-23T06:45:26.529Z,27.60
2017-06-23T06:47:54.933Z,27.50
2017-06-23T06:50:22.993Z,27.50
2017-06-23T06:52:50.677Z,27.10
2017-06-23T06:55:18.340Z,27.20
2017-06-23T06:57:46.292Z,27.50
2017-06-23T07:00:13.975Z,27.40
2017-06-23T07:02:41.625Z,27.50
2017-06-23T07:05:09.695Z,27.60
2017-06-23T07:07:37.339Z,27.90
2017-06-23T07:10:05.071Z,27.60
2017-06-23T07:12:33.065Z,27.60
2017-06-23T07:15:01.503Z,27.50
2017-06-23T07:17:29.145Z,27.50
2017-06-23T07:19:57.152Z,27.20
2017-06-23T07:22:24.807Z,27.50
2017-06-23T07:24:52.514Z,27.80
2017-06-23T07:27:20.575Z,28.00
2017-06-23T07:29:48.247Z,28.60
2017-06-23T07:32:15.908Z,28.00
2017-06-23T07:34:44.118Z,27.40
2017-06-23T07:37:11.770Z,27.60
2017-06-23T07:39:39.434Z,27.60
2017-06-23T07:42:07.474Z,27.60
2017-06-23T07:44:35.896Z,28.20
2017-06-23T07:47:03.610Z,28.20
2017-06-23T07:49:31.281Z,27.80
2017-06-23T07:51:58.942Z,27.10
2017-06-23T07:54:26.624Z,27.20
2017-06-23T07:56:54.255Z,27.10
2017-06-23T07:59:22.706Z,27.70
2017-06-23T08:01:50.382Z,27.70
2017-06-23T08:04:18.047Z,27.80
2017-06-23T08:06:46.505Z,28.30
2017-06-23T08:09:14.150Z,28.30
2017-06-23T08:11:41.822Z,28.60
2017-06-23T08:14:09.463Z,28.70
2017-06-23T08:16:37.133Z,28.50
2017-06-23T08:19:04.788Z,28.30
2017-06-23T08:21:32.804Z,28.50
2017-06-23T08:24:00.459Z,28.80
2017-06-23T08:26:28.136Z,29.00
2017-06-23T08:28:56.555Z,28.60
2017-06-23T08:31:24.203Z,28.60
2017-06-23T08:33:51.867Z,28.50
2017-06-23T08:36:19.556Z,28.30
2017-06-23T08:38:47.243Z,28.50
2017-06-23T08:41:14.938Z,29.20
2017-06-23T08:43:43.744Z,30.30
2017-06-23T08:46:11.406Z,30.30
2017-06-23T08:48:39.081Z,30.70
2017-06-23T08:51:07.137Z,30.20
2017-06-23T08:53:34.788Z,29.30
2017-06-23T08:56:02.434Z,29.00
2017-06-23T08:58:31.188Z,29.60
2017-06-23T09:00:58.842Z,29.60
2017-06-23T09:03:26.484Z,29.90
2017-06-23T09:05:54.518Z,30.50
2017-06-23T09:08:22.926Z,29.70
2017-06-23T09:10:50.559Z,29.70
2017-06-23T09:13:19.364Z,30.40
2017-06-23T09:15:47.021Z,30.30
2017-06-23T09:18:15.420Z,30.60
2017-06-23T09:20:43.478Z,30.60
2017-06-23T09:23:11.141Z,31.10
2017-06-23T09:25:38.759Z,31.00
2017-06-23T09:28:06.736Z,30.40
2017-06-23T09:30:34.462Z,30.60
2017-06-23T09:33:02.106Z,30.50
2017-06-23T09:35:30.152Z,30.80
2017-06-23T09:37:58.609Z,31.10
2017-06-23T09:40:26.268Z,31.10
2017-06-23T09:42:53.918Z,31.40
2017-06-23T09:45:21.561Z,31.70
2017-06-23T09:47:49.204Z,31.10
2017-06-23T09:50:16.837Z,31.40
2017-06-23T09:52:45.265Z,32.50
2017-06-23T09:55:12.918Z,32.40
2017-06-23T09:57:40.596Z,32.30
2017-06-23T10:00:08.223Z,31.50
2017-06-23T10:02:36.270Z,31.20
2017-06-23T10:05:04.676Z,30.10
2017-06-23T10:07:32.345Z,30.00
2017-06-23T10:10:00.027Z,29.90
2017-06-23T10:12:27.694Z,30.00
2017-06-23T10:14:55.387Z,29.50
2017-06-23T10:17:23.045Z,29.50
2017-06-23T10:19:51.872Z,29.90
2017-06-23T10:22:19.508Z,30.80
2017-06-23T10:24:47.141Z,31.50
2017-06-23T10:27:14.801Z,31.60
2017-06-23T10:29:42.451Z,31.80
2017-06-23T10:32:10.421Z,32.00
2017-06-23T10:34:38.082Z,31.80
2017-06-23T10:37:05.695Z,32.40
2017-06-23T10:39:34.422Z,32.30
2017-06-23T10:42:02.077Z,32.30
2017-06-23T10:44:29.712Z,31.60
2017-06-23T10:46:58.497Z,30.90
2017-06-23T10:49:26.134Z,30.90
2017-06-23T10:51:53.764Z,30.70
2017-06-23T10:54:21.715Z,30.60
2017-06-23T10:56:49.357Z,30.60
2017-06-23T10:59:17.017Z,30.20
2017-06-23T11:01:45.101Z,29.90
2017-06-23T11:04:12.745Z,29.90
2017-06-23T11:06:41.166Z,30.30
2017-06-23T11:09:09.167Z,30.30
2017-06-23T11:11:36.848Z,30.50
2017-06-23T11:14:05.245Z,30.30
2017-06-23T11:16:33.304Z,30.30
2017-06-23T11:19:01.738Z,30.20
2017-06-23T11:21:29.376Z,30.20
2017-06-23T11:23:57.336Z,29.80
2017-06-23T11:26:24.966Z,29.70
2017-06-23T11:28:52.675Z,29.80
2017-06-23T11:31:20.633Z,30.60
2017-06-23T11:33:48.293Z,30.60
2017-06-23T11:36:15.966Z,30.90
2017-06-23T11:38:43.632Z,31.00
2017-06-23T11:41:11.295Z,31.10
2017-06-23T11:43:38.961Z,30.90
2017-06-23T11:46:06.627Z,30.70
2017-06-23T11:48:34.307Z,30.90
2017-06-23T11:51:01.950Z,30.80
2017-06-23T11:53:29.619Z,30.20
2017-06-23T11:55:57.251Z,30.40
2017-06-23T11:58:25.303Z,30.90
2017-06-23T12:00:53.715Z,30.90
2017-06-23T12:03:21.376Z,30.90
2017-06-23T12:05:49.526Z,30.70
2017-06-23T12:08:17.167Z,30.30
2017-06-23T12:10:45.572Z,30.20
2017-06-23T12:13:13.634Z,30.20
2017-06-23T12:15:41.281Z,30.40
2017-06-23T12:18:08.936Z,30.20
2017-06-23T12:20:37.681Z,30.00
2017-06-23T12:23:05.329Z,30.00
2017-06-23T12:25:32.946Z,30.00
2017-06-23T12:28:01.389Z,30.60
2017-06-23T12:30:29.040Z,30.50
2017-06-23T12:32:57.072Z,31.00
2017-06-23T12:35:25.506Z,31.40
2017-06-23T12:37:53.157Z,31.30
2017-06-23T12:40:21.129Z,31.10
2017-06-23T12:42:48.768Z,30.60
2017-06-23T12:45:16.533Z,30.50
2017-06-23T12:47:44.501Z,30.30
2017-06-23T12:50:12.138Z,30.40
2017-06-23T12:52:40.574Z,30.30
2017-06-23T12:55:08.592Z,30.30
2017-06-23T12:57:36.998Z,29.90
2017-06-23T13:00:05.165Z,29.90
2017-06-23T13:02:33.126Z,30.10
2017-06-23T13:05:00.762Z,30.20
2017-06-23T13:07:29.151Z,30.90
2017-06-23T13:09:57.228Z,30.90
2017-06-23T13:12:25.760Z,31.20
2017-06-23T13:14:53.397Z,31.20
2017-06-23T13:17:21.406Z,31.30
2017-06-23T13:19:49.087Z,31.50
2017-06-23T13:22:17.502Z,32.00
2017-06-23T13:24:45.507Z,32.00
2017-06-23T13:27:14.092Z,32.20
2017-06-23T13:29:41.843Z,31.80
2017-06-23T13:32:09.859Z,31.50
2017-06-23T13:34:38.448Z,31.60
2017-06-23T13:37:06.106Z,31.60
2017-06-23T13:39:35.162Z,31.60
2017-06-23T13:42:02.805Z,31.50
2017-06-23T13:44:30.477Z,31.50
2017-06-23T13:46:58.474Z,31.30
2017-06-23T13:49:26.221Z,31.00
2017-06-23T13:51:53.896Z,31.20
2017-06-23T13:54:21.926Z,31.00
2017-06-23T13:56:49.573Z,30.80
2017-06-23T13:59:17.347Z,30.80
2017-06-23T14:01:46.443Z,30.60
2017-06-23T14:04:14.551Z,30.80
2017-06-23T14:06:42.393Z,30.70
2017-06-23T14:09:10.634Z,30.80
2017-06-23T14:11:39.056Z,31.00
2017-06-23T14:14:06.756Z,31.00
2017-06-23T14:16:34.771Z,30.70
2017-06-23T14:19:02.436Z,30.40
2017-06-23T14:21:30.203Z,30.50
2017-06-23T14:23:58.115Z,30.60
2017-06-23T14:26:25.875Z,30.50
2017-06-23T14:28:53.540Z,30.40
2017-06-23T14:31:21.204Z,30.50
2017-06-23T14:33:48.885Z,30.30
2017-06-23T14:36:16.519Z,30.30
2017-06-23T14:38:44.633Z,30.30
2017-06-23T14:41:13.039Z,30.30
2017-06-23T14:43:40.675Z,30.30
2017-06-23T14:46:08.318Z,30.20
2017-06-23T14:48:36.000Z,30.20
2017-06-23T14:51:04.061Z,30.40
2017-06-23T14:53:31.712Z,30.30
2017-06-23T14:55:59.391Z,30.30
2017-06-23T14:58:28.149Z,29.90
2017-06-23T15:00:55.811Z,29.90
2017-06-23T15:03:23.468Z,29.80
2017-06-23T15:05:51.477Z,29.70
2017-06-23T15:08:19.112Z,29.70
2017-06-23T15:10:46.771Z,29.90
2017-06-23T15:13:14.748Z,29.90
2017-06-23T15:15:42.409Z,29.70
2017-06-23T15:18:10.210Z,29.60
2017-06-23T15:20:38.230Z,29.40
2017-06-23T15:23:05.898Z,29.40
2017-06-23T15:25:34.356Z,29.40
2017-06-23T15:28:03.071Z,29.40
2017-06-23T15:30:30.725Z,29.40
2017-06-23T15:32:58.371Z,29.30
2017-06-23T15:35:26.384Z,29.50
2017-06-23T15:37:54.830Z,29.70
2017-06-23T15:40:22.478Z,29.70
2017-06-23T15:42:50.492Z,29.70
2017-06-23T15:45:18.981Z,29.60
2017-06-23T15:47:46.637Z,29.60
2017-06-23T15:50:16.294Z,29.70
2017-06-23T15:52:43.945Z,29.70
2017-06-23T15:55:11.592Z,29.70
2017-06-23T15:57:40.488Z,29.80
2017-06-23T16:00:08.140Z,30.50
2017-06-23T16:02:35.800Z,30.60
2017-06-23T16:05:03.472Z,30.40
2017-06-23T16:07:31.561Z,29.50
2017-06-23T16:09:59.318Z,29.40
2017-06-23T16:12:27.519Z,29.50
2017-06-23T16:14:55.627Z,29.90
2017-06-23T16:17:24.109Z,30.00
2017-06-23T16:19:53.483Z,30.00
2017-06-23T16:22:21.561Z,29.90
2017-06-23T16:24:49.167Z,30.20
2017-06-23T16:27:16.815Z,30.10
2017-06-23T16:29:44.478Z,29.90
2017-06-23T16:32:12.114Z,29.40
2017-06-23T16:34:39.776Z,29.30
2017-06-23T16:37:07.434Z,29.80
2017-06-23T16:39:35.102Z,30.10
2017-06-23T16:42:03.523Z,30.00
2017-06-23T16:44:31.567Z,30.00
2017-06-23T16:46:59.215Z,29.70
2017-06-23T16:49:27.631Z,29.40
2017-06-23T16:51:55.319Z,29.30
2017-06-23T16:54:22.966Z,29.10
2017-06-23T16:56:50.643Z,29.30
2017-06-23T16:59:18.500Z,29.70
2017-06-23T17:01:46.494Z,29.80
2017-06-23T17:04:14.153Z,29.90
2017-06-23T17:06:41.816Z,30.20
2017-06-23T17:09:09.824Z,30.20
2017-06-23T17:11:37.442Z,29.70
2017-06-23T17:14:05.169Z,29.50
2017-06-23T17:16:33.247Z,29.70
2017-06-23T17:19:00.974Z,29.90
2017-06-23T17:21:29.388Z,30.20
2017-06-23T17:23:57.434Z,30.20
2017-06-23T17:26:25.103Z,30.30
2017-06-23T17:28:52.740Z,30.20
2017-06-23T17:31:20.739Z,30.00
2017-06-23T17:33:48.377Z,29.90
2017-06-23T17:36:16.776Z,29.30
2017-06-23T17:38:44.774Z,29.30
2017-06-23T17:41:12.429Z,29.50
2017-06-23T17:43:40.073Z,29.80
2017-06-23T17:46:08.166Z,29.40
2017-06-23T17:48:36.228Z,29.30
2017-06-23T17:51:03.920Z,29.10
2017-06-23T17:53:32.222Z,29.10
2017-06-23T17:55:59.859Z,28.70
2017-06-23T17:58:27.705Z,28.80
2017-06-23T18:00:55.453Z,28.90
2017-06-23T18:03:23.155Z,29.00
2017-06-23T18:05:51.027Z,29.00
2017-06-23T18:08:18.784Z,28.70
2017-06-23T18:10:46.478Z,28.70
2017-06-23T18:13:14.111Z,28.70
2017-06-23T18:15:43.110Z,28.90
2017-06-23T18:18:10.747Z,28.70
2017-06-23T18:20:38.399Z,28.60
2017-06-23T18:23:06.075Z,28.30
2017-06-23T18:25:33.713Z,28.20
2017-06-23T18:28:01.495Z,28.30
2017-06-23T18:30:29.160Z,28.30
2017-06-23T18:32:57.060Z,28.10
2017-06-23T18:35:24.722Z,28.00
2017-06-23T18:37:52.845Z,28.10
2017-06-23T18:40:20.746Z,28.10
2017-06-23T18:42:48.570Z,28.00
2017-06-23T18:45:16.232Z,27.70
2017-06-23T18:47:43.892Z,27.80
2017-06-23T18:50:11.584Z,27.70
2017-06-23T18:52:39.260Z,27.80
2017-06-23T18:55:06.937Z,27.80
2017-06-23T18:57:34.920Z,27.70
2017-06-23T19:00:03.716Z,27.70
2017-06-23T19:02:31.529Z,27.60
2017-06-23T19:04:59.831Z,27.60
2017-06-23T19:07:27.473Z,27.60
2017-06-23T19:09:55.115Z,27.50
2017-06-23T19:12:22.783Z,27.40
2017-06-23T19:14:50.448Z,27.40
2017-06-23T19:17:18.105Z,27.40
2017-06-23T19:19:45.761Z,27.40
2017-06-23T19:22:13.715Z,27.40
2017-06-23T19:24:42.143Z,27.30
2017-06-23T19:27:09.768Z,27.30
2017-06-23T19:29:37.869Z,27.20
2017-06-23T19:32:05.523Z,27.10
2017-06-23T19:34:33.180Z,27.10
2017-06-23T19:37:01.216Z,27.20
2017-06-23T19:39:29.621Z,27.10
2017-06-23T19:41:57.386Z,27.10
2017-06-23T19:44:25.449Z,26.80
2017-06-23T19:46:53.118Z,26.80
2017-06-23T19:49:20.843Z,26.70
2017-06-23T19:51:50.337Z,26.60
2017-06-23T19:54:18.000Z,26.60
2017-06-23T19:56:45.663Z,26.50
2017-06-23T19:59:13.662Z,26.50
2017-06-23T20:01:41.313Z,26.40
2017-06-23T20:04:09.738Z,26.20
2017-06-23T20:06:37.766Z,26.20
2017-06-23T20:09:06.184Z,26.20
2017-06-23T20:11:33.836Z,26.20
2017-06-23T20:14:01.522Z,26.40
2017-06-23T20:16:29.163Z,26.50
2017-06-23T20:18:56.856Z,26.60
2017-06-23T20:21:24.514Z,26.60
2017-06-23T20:23:52.203Z,26.60
2017-06-23T20:26:20.075Z,26.50
2017-06-23T20:28:47.741Z,26.50
2017-06-23T20:31:16.157Z,26.40
2017-06-23T20:33:44.211Z,26.30
2017-06-23T20:36:11.866Z,26.30
2017-06-23T20:38:40.266Z,26.30
2017-06-23T20:41:07.945Z,26.30
2017-06-23T20:43:35.582Z,26.20
2017-06-23T20:46:03.265Z,26.20
2017-06-23T20:48:30.935Z,26.10
2017-06-23T20:50:58.607Z,26.10
2017-06-23T20:53:26.305Z,26.00
2017-06-23T20:55:54.743Z,26.10
2017-06-23T20:58:22.404Z,26.00
2017-06-23T21:00:50.470Z,26.10
2017-06-23T21:03:18.128Z,26.00
2017-06-23T21:05:45.763Z,26.00
2017-06-23T21:08:13.423Z,25.90
2017-06-23T21:10:41.135Z,25.90
2017-06-23T21:13:08.813Z,25.90
2017-06-23T21:15:36.452Z,25.80
2017-06-23T21:18:04.593Z,25.80
2017-06-23T21:20:32.278Z,25.70
2017-06-23T21:23:00.130Z,25.70
2017-06-23T21:25:27.795Z,25.70
2017-06-23T21:27:55.452Z,25.70
